createdAt,value
2019-03-20T00:00:03.376Z,0
2019-03-20T00:00:43.780Z,0
2019-03-20T00:01:24.225Z,0
2019-03-20T00:02:04.583Z,0
2019-03-20T00:02:44.997Z,0
2019-03-20T00:03:25.432Z,0
2019-03-20T00:04:05.733Z,0
2019-03-20T00:04:49.856Z,0
2019-03-20T00:05:26.535Z,0
2019-03-20T00:06:07.001Z,0
2019-03-20T00:06:47.322Z,0
2019-03-20T00:07:27.708Z,0
2019-03-20T00:08:08.077Z,0
2019-03-20T00:08:48.449Z,0
2019-03-20T00:09:28.810Z,0
2019-03-20T00:10:09.248Z,0
2019-03-20T00:10:49.615Z,0
2019-03-20T00:11:30.024Z,0
2019-03-20T00:12:10.453Z,0
2019-03-20T00:12:50.811Z,0
2019-03-20T00:13:31.186Z,0
2019-03-20T00:14:11.587Z,0
2019-03-20T00:14:51.966Z,0
2019-03-20T00:15:32.319Z,0
2019-03-20T00:16:12.750Z,0
2019-03-20T00:16:53.125Z,0
2019-03-20T00:17:33.470Z,0
2019-03-20T00:18:13.845Z,0
2019-03-20T00:18:54.258Z,0
2019-03-20T00:19:34.631Z,0
2019-03-20T00:20:15.023Z,0
2019-03-20T00:20:55.410Z,0
2019-03-20T00:21:35.787Z,0
2019-03-20T00:22:16.210Z,0
2019-03-20T00:22:56.595Z,0
2019-03-20T00:23:37.039Z,0
2019-03-20T00:24:17.420Z,0
2019-03-20T00:24:57.797Z,0
2019-03-20T00:25:38.285Z,0
2019-03-20T00:26:18.645Z,0
2019-03-20T00:26:59.010Z,0
2019-03-20T00:27:39.486Z,0
2019-03-20T00:28:19.887Z,0
2019-03-20T00:29:00.213Z,0
2019-03-20T00:29:40.588Z,0
2019-03-20T00:30:21.005Z,0
2019-03-20T00:31:01.389Z,0
2019-03-20T00:31:41.763Z,0
2019-03-20T00:32:22.189Z,0
2019-03-20T00:33:02.537Z,0
2019-03-20T00:33:42.961Z,0
2019-03-20T00:34:23.370Z,0
2019-03-20T00:35:03.694Z,0
2019-03-20T00:35:44.102Z,0
2019-03-20T00:36:24.565Z,0
2019-03-20T00:37:04.840Z,0
2019-03-20T00:37:45.247Z,0
2019-03-20T00:38:25.651Z,0
2019-03-20T00:39:05.982Z,0
2019-03-20T00:39:47.950Z,0
2019-03-20T00:44:08.993Z,0
2019-03-20T00:44:49.426Z,0
2019-03-20T00:45:29.849Z,0
2019-03-20T00:46:10.259Z,0
2019-03-20T00:46:50.624Z,0
2019-03-20T00:47:31.013Z,0
2019-03-20T00:48:11.464Z,0
2019-03-20T00:48:51.843Z,0
2019-03-20T00:49:32.245Z,0
2019-03-20T00:50:12.704Z,0
2019-03-20T00:50:53.105Z,0
2019-03-20T00:51:33.518Z,0
2019-03-20T00:52:13.856Z,0
2019-03-20T00:52:54.293Z,0
2019-03-20T00:53:34.704Z,0
2019-03-20T00:54:15.085Z,0
2019-03-20T00:54:55.494Z,0
2019-03-20T00:55:35.891Z,0
2019-03-20T00:56:16.303Z,0
2019-03-20T00:56:56.706Z,0
2019-03-20T00:57:37.120Z,0
2019-03-20T00:58:17.567Z,0
2019-03-20T00:58:57.962Z,0
2019-03-20T00:59:38.446Z,0
2019-03-20T01:00:18.747Z,0
2019-03-20T01:00:59.176Z,0
2019-03-20T01:01:39.562Z,0
2019-03-20T01:02:19.989Z,0
2019-03-20T01:03:00.353Z,0
2019-03-20T01:03:40.733Z,0
2019-03-20T01:04:21.140Z,0
2019-03-20T01:05:08.389Z,0
2019-03-20T01:05:41.928Z,0
2019-03-20T01:06:22.296Z,0
2019-03-20T01:07:02.666Z,0
2019-03-20T01:07:43.095Z,0
2019-03-20T01:08:23.480Z,0
2019-03-20T01:09:03.819Z,0
2019-03-20T01:09:44.281Z,0
2019-03-20T01:10:24.662Z,0
2019-03-20T01:11:05.082Z,0
2019-03-20T01:11:45.411Z,0
2019-03-20T01:12:26.760Z,0
2019-03-20T01:13:07.160Z,0
2019-03-20T01:13:47.614Z,0
2019-03-20T01:20:14.622Z,0
2019-03-20T01:20:53.826Z,0
2019-03-20T01:21:34.217Z,0
2019-03-20T01:22:14.658Z,0
2019-03-20T01:22:55.082Z,0
2019-03-20T01:23:35.448Z,0
2019-03-20T01:24:15.906Z,0
2019-03-20T01:24:56.264Z,0
2019-03-20T01:25:36.678Z,0
2019-03-20T01:26:17.979Z,0
2019-03-20T01:26:58.404Z,0
2019-03-20T01:27:38.758Z,0
2019-03-20T01:28:19.105Z,0
2019-03-20T01:28:59.517Z,0
2019-03-20T01:29:39.905Z,0
2019-03-20T01:30:20.360Z,0
2019-03-20T01:31:00.681Z,0
2019-03-20T01:31:41.080Z,0
2019-03-20T01:32:21.497Z,0
2019-03-20T01:33:01.975Z,0
2019-03-20T01:37:53.993Z,0
2019-03-20T01:40:50.442Z,0
2019-03-20T01:41:39.727Z,0
2019-03-20T01:42:31.632Z,0
2019-03-20T01:46:34.567Z,0
2019-03-20T01:49:29.835Z,0
2019-03-20T01:51:52.933Z,0
2019-03-20T01:52:36.759Z,0
2019-03-20T01:53:17.195Z,0
2019-03-20T01:53:57.610Z,0
2019-03-20T01:54:37.992Z,0
2019-03-20T01:55:18.359Z,0
2019-03-20T01:55:58.751Z,0
2019-03-20T01:56:39.165Z,0
2019-03-20T01:57:19.514Z,0
2019-03-20T01:57:59.894Z,0
2019-03-20T01:58:40.278Z,0
2019-03-20T01:59:20.698Z,0
2019-03-20T02:00:01.076Z,0
2019-03-20T02:00:41.461Z,0
2019-03-20T02:01:21.876Z,0
2019-03-20T02:02:02.300Z,0
2019-03-20T02:02:42.687Z,0
2019-03-20T02:03:23.081Z,0
2019-03-20T02:04:03.496Z,0
2019-03-20T02:04:43.890Z,0
2019-03-20T02:05:34.599Z,0
2019-03-20T02:06:04.679Z,0
2019-03-20T02:06:45.086Z,0
2019-03-20T02:07:25.575Z,0
2019-03-20T02:08:05.853Z,0
2019-03-20T02:08:46.269Z,0
2019-03-20T02:09:26.638Z,0
2019-03-20T02:10:07.020Z,0
2019-03-20T02:10:47.410Z,0
2019-03-20T02:11:27.815Z,0
2019-03-20T02:12:08.223Z,0
2019-03-20T02:12:48.601Z,0
2019-03-20T02:13:29.058Z,0
2019-03-20T02:14:09.395Z,0
2019-03-20T02:14:49.789Z,0
2019-03-20T02:15:38.484Z,0
2019-03-20T02:16:10.602Z,0
2019-03-20T02:16:50.993Z,0
2019-03-20T02:17:31.387Z,0
2019-03-20T02:18:11.784Z,0
2019-03-20T02:18:52.197Z,0
2019-03-20T02:19:32.630Z,0
2019-03-20T02:20:12.997Z,0
2019-03-20T02:20:53.375Z,0
2019-03-20T02:21:33.771Z,0
2019-03-20T02:22:14.211Z,0
2019-03-20T02:22:54.576Z,0
2019-03-20T02:23:34.934Z,0
2019-03-20T02:24:15.335Z,0
2019-03-20T02:24:55.706Z,0
2019-03-20T02:25:36.130Z,0
2019-03-20T02:26:16.525Z,0
2019-03-20T02:26:57.000Z,0
2019-03-20T02:27:37.329Z,0
2019-03-20T02:28:17.745Z,0
2019-03-20T02:28:58.127Z,0
2019-03-20T02:29:38.536Z,0
2019-03-20T02:30:18.978Z,0
2019-03-20T02:30:59.299Z,0
2019-03-20T02:31:39.674Z,0
2019-03-20T02:32:20.099Z,0
2019-03-20T02:33:00.608Z,0
2019-03-20T02:33:40.808Z,0
2019-03-20T02:34:21.182Z,0
2019-03-20T02:35:01.957Z,0
2019-03-20T02:35:51.066Z,0
2019-03-20T02:36:22.282Z,0
2019-03-20T02:37:02.697Z,0
2019-03-20T02:37:43.073Z,0
2019-03-20T02:38:23.481Z,0
2019-03-20T02:39:03.823Z,0
2019-03-20T02:39:44.262Z,0
2019-03-20T02:40:24.595Z,0
2019-03-20T02:41:05.079Z,0
2019-03-20T02:41:45.419Z,0
2019-03-20T02:42:25.837Z,0
2019-03-20T02:43:06.204Z,0
2019-03-20T02:43:46.532Z,0
2019-03-20T02:44:26.931Z,0
2019-03-20T02:45:07.313Z,0
2019-03-20T02:45:47.720Z,0
2019-03-20T02:46:28.118Z,0
2019-03-20T02:47:08.484Z,0
2019-03-20T02:47:48.904Z,0
2019-03-20T02:48:29.321Z,0
2019-03-20T02:49:09.665Z,0
2019-03-20T02:49:50.046Z,0
2019-03-20T02:50:30.439Z,0
2019-03-20T02:51:10.805Z,0
2019-03-20T02:51:51.198Z,0
2019-03-20T02:52:31.584Z,0
2019-03-20T02:53:11.996Z,0
2019-03-20T02:53:52.357Z,0
2019-03-20T02:54:32.790Z,0
2019-03-20T02:55:13.188Z,0
2019-03-20T02:55:53.557Z,0
2019-03-20T02:56:33.958Z,0
2019-03-20T02:57:17.301Z,0
2019-03-20T02:57:54.846Z,0
2019-03-20T02:58:35.237Z,0
2019-03-20T02:59:15.578Z,0
2019-03-20T02:59:55.997Z,0
2019-03-20T03:00:36.464Z,0
2019-03-20T03:01:16.859Z,0
2019-03-20T03:01:57.214Z,0
2019-03-20T03:02:37.714Z,0
2019-03-20T03:03:18.073Z,0
2019-03-20T03:03:58.462Z,0
2019-03-20T03:04:38.877Z,0
2019-03-20T03:05:19.279Z,0
2019-03-20T03:06:06.391Z,0
2019-03-20T03:06:40.020Z,0
2019-03-20T03:07:20.445Z,0
2019-03-20T03:08:00.854Z,0
2019-03-20T03:08:41.244Z,0
2019-03-20T03:09:21.602Z,0
2019-03-20T03:10:01.972Z,0
2019-03-20T03:10:42.391Z,0
2019-03-20T03:11:22.793Z,0
2019-03-20T03:14:05.052Z,0
2019-03-20T03:14:45.385Z,0
2019-03-20T03:15:25.781Z,0
2019-03-20T03:16:06.182Z,0
2019-03-20T03:16:46.805Z,0
2019-03-20T03:17:29.220Z,0
2019-03-20T03:18:09.571Z,0
2019-03-20T03:18:50.125Z,0
2019-03-20T03:19:30.529Z,0
2019-03-20T03:20:10.921Z,0
2019-03-20T03:20:51.334Z,0
2019-03-20T03:21:31.729Z,0
2019-03-20T03:22:12.087Z,0
2019-03-20T03:22:52.611Z,0
2019-03-20T03:23:32.877Z,0
2019-03-20T03:24:13.332Z,0
2019-03-20T03:24:53.660Z,0
2019-03-20T03:25:34.046Z,0
2019-03-20T03:26:14.442Z,0
2019-03-20T03:26:54.815Z,0
2019-03-20T03:27:36.203Z,0
2019-03-20T03:28:18.179Z,0
2019-03-20T03:28:58.863Z,0
2019-03-20T03:29:39.886Z,0
2019-03-20T03:30:20.801Z,0
2019-03-20T03:31:01.725Z,0
2019-03-20T03:31:42.872Z,0
2019-03-20T03:32:23.799Z,0
2019-03-20T03:33:04.779Z,0
2019-03-20T03:33:45.954Z,0
2019-03-20T03:34:27.109Z,0
2019-03-20T03:35:08.043Z,0
2019-03-20T03:35:49.260Z,0
2019-03-20T03:36:31.904Z,0
2019-03-20T03:37:13.215Z,0
2019-03-20T03:37:55.281Z,0
2019-03-20T03:38:35.755Z,0
2019-03-20T03:39:16.109Z,0
2019-03-20T03:39:56.540Z,0
2019-03-20T03:40:36.986Z,0
2019-03-20T03:41:17.366Z,0
2019-03-20T03:41:57.727Z,0
2019-03-20T03:42:38.110Z,0
2019-03-20T03:43:18.477Z,0
2019-03-20T03:43:58.889Z,0
2019-03-20T03:44:39.289Z,0
2019-03-20T03:45:19.653Z,0
2019-03-20T03:46:00.046Z,0
2019-03-20T03:46:40.499Z,0
2019-03-20T03:47:20.852Z,0
2019-03-20T03:48:01.256Z,0
2019-03-20T03:48:41.673Z,0
2019-03-20T03:49:22.055Z,0
2019-03-20T03:50:02.421Z,0
2019-03-20T03:50:42.782Z,0
2019-03-20T03:51:23.227Z,0
2019-03-20T03:52:03.616Z,0
2019-03-20T03:52:44.027Z,0
2019-03-20T03:53:24.807Z,0
2019-03-20T03:54:05.466Z,0
2019-03-20T03:54:45.870Z,0
2019-03-20T03:55:26.926Z,0
2019-03-20T03:56:08.276Z,0
2019-03-20T03:56:48.950Z,0
2019-03-20T03:57:29.352Z,0
2019-03-20T03:58:09.822Z,0
2019-03-20T03:58:50.251Z,0
2019-03-20T03:59:30.641Z,0
2019-03-20T04:00:11.067Z,0
2019-03-20T04:00:51.428Z,0
2019-03-20T04:01:31.966Z,0
2019-03-20T04:02:12.305Z,0
2019-03-20T04:02:52.734Z,0
2019-03-20T04:03:33.161Z,0
2019-03-20T04:04:13.610Z,0
2019-03-20T04:04:54.107Z,0
2019-03-20T04:05:34.530Z,0
2019-03-20T04:06:14.937Z,0
2019-03-20T04:06:55.356Z,0
2019-03-20T04:07:35.750Z,0
2019-03-20T04:08:16.138Z,0
2019-03-20T04:08:56.559Z,0
2019-03-20T04:09:36.943Z,0
2019-03-20T04:10:17.419Z,0
2019-03-20T04:16:10.543Z,0
2019-03-20T04:16:50.605Z,0
2019-03-20T04:17:30.996Z,0
2019-03-20T04:18:11.392Z,0
2019-03-20T04:18:51.811Z,0
2019-03-20T04:19:32.278Z,0
2019-03-20T04:20:12.598Z,0
2019-03-20T04:20:53.027Z,0
2019-03-20T04:21:33.412Z,0
2019-03-20T04:22:13.802Z,0
2019-03-20T04:22:54.213Z,0
2019-03-20T04:23:34.616Z,0
2019-03-20T04:24:15.051Z,0
2019-03-20T04:24:55.451Z,0
2019-03-20T04:25:35.852Z,0
2019-03-20T04:26:16.283Z,0
2019-03-20T04:26:56.703Z,0
2019-03-20T04:27:37.067Z,0
2019-03-20T05:08:39.139Z,0
2019-03-20T05:09:20.879Z,0
2019-03-20T05:10:01.269Z,0
2019-03-20T05:10:41.665Z,0
2019-03-20T05:11:22.567Z,0
2019-03-20T05:12:03.062Z,0
2019-03-20T05:12:43.351Z,0
2019-03-20T05:13:23.764Z,0
2019-03-20T05:14:04.134Z,0
2019-03-20T05:14:44.574Z,0
2019-03-20T05:15:24.963Z,0
2019-03-20T05:16:05.446Z,0
2019-03-20T05:16:45.895Z,0
2019-03-20T05:17:26.356Z,0
2019-03-20T05:18:06.705Z,0
2019-03-20T05:18:47.138Z,0
2019-03-20T05:19:27.494Z,0
2019-03-20T05:20:07.952Z,0
2019-03-20T05:20:48.323Z,0
2019-03-20T05:21:28.720Z,0
2019-03-20T05:22:09.169Z,0
2019-03-20T05:22:49.682Z,0
2019-03-20T05:23:30.064Z,0
2019-03-20T05:24:10.469Z,0
2019-03-20T05:24:50.861Z,0
2019-03-20T05:25:31.262Z,0
2019-03-20T05:26:11.722Z,0
2019-03-20T05:26:52.150Z,0
2019-03-20T05:27:32.594Z,0
2019-03-20T05:28:12.978Z,0
2019-03-20T05:28:53.400Z,0
2019-03-20T05:29:33.783Z,0
2019-03-20T05:30:15.010Z,0
2019-03-20T05:30:55.429Z,0
2019-03-20T05:31:35.771Z,0
2019-03-20T05:32:16.175Z,0
2019-03-20T05:32:56.671Z,0
2019-03-20T05:33:37.013Z,0
2019-03-20T05:34:17.422Z,0
2019-03-20T05:34:57.834Z,0
2019-03-20T05:35:38.198Z,0
2019-03-20T05:36:18.627Z,0
2019-03-20T05:37:09.477Z,0
2019-03-20T05:37:39.456Z,5
2019-03-20T05:38:19.906Z,5
2019-03-20T05:39:00.270Z,5
2019-03-20T05:39:43.385Z,5
2019-03-20T05:40:23.774Z,5
2019-03-20T05:41:04.172Z,5
2019-03-20T05:41:44.563Z,5
2019-03-20T05:42:25.015Z,10
2019-03-20T05:43:05.438Z,10
2019-03-20T05:43:45.857Z,10
2019-03-20T05:44:26.252Z,10
2019-03-20T05:45:10.265Z,10
2019-03-20T05:45:50.751Z,15
2019-03-20T05:46:31.089Z,15
2019-03-20T05:47:11.552Z,15
2019-03-20T05:47:51.939Z,15
2019-03-20T05:52:58.124Z,20
2019-03-20T05:53:38.515Z,20
2019-03-20T05:54:18.913Z,25
2019-03-20T05:54:59.290Z,25
2019-03-20T05:55:39.696Z,25
2019-03-20T05:56:20.129Z,25
2019-03-20T05:57:00.517Z,25
2019-03-20T05:57:40.915Z,30
2019-03-20T05:58:21.957Z,40
2019-03-20T05:59:02.406Z,45
2019-03-20T05:59:42.805Z,55
2019-03-20T06:00:23.268Z,65
2019-03-20T06:01:03.716Z,75
2019-03-20T06:01:44.185Z,80
2019-03-20T06:02:25.768Z,80
2019-03-20T06:03:05.001Z,85
2019-03-20T06:03:45.369Z,85
2019-03-20T06:04:25.762Z,90
2019-03-20T06:05:06.186Z,90
2019-03-20T06:05:46.543Z,100
2019-03-20T06:06:26.984Z,105
2019-03-20T06:07:07.394Z,110
2019-03-20T06:07:47.736Z,120
2019-03-20T06:08:28.123Z,125
2019-03-20T06:09:08.522Z,125
2019-03-20T06:09:49.027Z,120
2019-03-20T06:10:29.363Z,125
2019-03-20T06:11:09.743Z,125
2019-03-20T06:11:50.122Z,135
2019-03-20T06:12:30.513Z,140
2019-03-20T06:13:11.131Z,150
2019-03-20T06:13:51.581Z,155
2019-03-20T06:14:32.004Z,165
2019-03-20T06:19:27.094Z,200
2019-03-20T06:20:07.468Z,215
2019-03-20T06:20:47.945Z,220
2019-03-20T06:21:28.352Z,225
2019-03-20T06:22:08.740Z,225
2019-03-20T06:22:49.119Z,230
2019-03-20T06:23:29.541Z,230
2019-03-20T06:24:09.981Z,220
2019-03-20T06:24:50.381Z,165
2019-03-20T06:25:30.733Z,105
2019-03-20T06:26:11.152Z,90
2019-03-20T06:26:51.571Z,95
2019-03-20T06:27:31.960Z,55
2019-03-20T06:28:12.392Z,50
2019-03-20T06:28:52.770Z,55
2019-03-20T06:29:33.172Z,50
2019-03-20T06:30:13.596Z,40
2019-03-20T06:30:54.083Z,40
2019-03-20T06:31:34.446Z,40
2019-03-20T06:32:14.843Z,40
2019-03-20T06:32:55.229Z,40
2019-03-20T06:33:35.652Z,35
2019-03-20T06:34:16.099Z,35
2019-03-20T06:34:56.421Z,35
2019-03-20T06:35:36.940Z,40
2019-03-20T06:36:17.406Z,35
2019-03-20T06:36:57.767Z,25
2019-03-20T06:37:38.817Z,25
2019-03-20T06:51:04.791Z,20
2019-03-20T06:51:45.404Z,20
2019-03-20T06:52:26.785Z,20
2019-03-20T06:53:06.621Z,20
2019-03-20T06:53:47.291Z,20
2019-03-20T06:54:28.526Z,20
2019-03-20T06:55:08.485Z,20
2019-03-20T06:55:49.274Z,20
2019-03-20T06:58:15.753Z,20
2019-03-20T06:58:53.841Z,20
2019-03-20T06:59:35.933Z,20
2019-03-20T07:00:15.884Z,20
2019-03-20T07:01:00.010Z,20
2019-03-20T07:01:40.339Z,20
2019-03-20T07:02:20.828Z,20
2019-03-20T07:03:01.714Z,20
2019-03-20T07:03:42.684Z,15
2019-03-20T07:04:23.209Z,20
2019-03-20T07:05:03.621Z,20
2019-03-20T07:05:44.201Z,20
2019-03-20T07:06:24.532Z,20
2019-03-20T07:07:05.178Z,20
2019-03-20T07:07:46.000Z,20
2019-03-20T07:08:26.604Z,20
2019-03-20T07:09:07.039Z,20
2019-03-20T07:09:48.064Z,20
2019-03-20T07:10:28.468Z,20
2019-03-20T07:11:08.919Z,20
2019-03-20T07:11:50.355Z,20
2019-03-20T07:12:30.856Z,20
2019-03-20T07:13:11.499Z,20
2019-03-20T07:13:51.931Z,20
2019-03-20T07:14:32.562Z,20
2019-03-20T07:15:12.924Z,20
2019-03-20T07:15:53.457Z,20
2019-03-20T07:16:34.831Z,20
2019-03-20T07:17:14.801Z,15
2019-03-20T07:17:55.075Z,15
2019-03-20T07:18:37.086Z,15
2019-03-20T07:21:34.984Z,15
2019-03-20T07:27:14.553Z,20
2019-03-20T07:27:54.929Z,20
2019-03-20T07:28:35.335Z,20
2019-03-20T07:29:17.436Z,20
2019-03-20T07:29:57.968Z,20
2019-03-20T07:30:38.492Z,20
2019-03-20T07:31:19.401Z,20
2019-03-20T07:32:12.021Z,20
2019-03-20T07:32:53.105Z,20
2019-03-20T07:33:33.985Z,20
2019-03-20T07:34:14.375Z,20
2019-03-20T07:34:55.329Z,20
2019-03-20T07:35:35.730Z,20
2019-03-20T07:36:16.164Z,20
2019-03-20T07:36:56.572Z,20
2019-03-20T07:37:37.013Z,20
2019-03-20T07:38:17.405Z,20
2019-03-20T07:38:57.830Z,20
2019-03-20T07:39:38.227Z,25
2019-03-20T07:40:18.663Z,25
2019-03-20T07:40:59.158Z,25
2019-03-20T07:41:39.631Z,25
2019-03-20T07:42:21.684Z,25
2019-03-20T07:43:08.497Z,25
2019-03-20T07:43:44.231Z,25
2019-03-20T07:44:25.510Z,25
2019-03-20T07:45:05.967Z,25
2019-03-20T07:45:46.432Z,25
2019-03-20T07:46:26.932Z,25
2019-03-20T07:47:07.592Z,25
2019-03-20T07:47:47.971Z,25
2019-03-20T07:48:30.445Z,25
2019-03-20T07:49:10.914Z,25
2019-03-20T07:49:51.505Z,25
2019-03-20T07:50:32.121Z,25
2019-03-20T07:51:12.604Z,25
2019-03-20T07:51:53.092Z,25
2019-03-20T07:52:34.735Z,25
2019-03-20T07:53:15.101Z,25
2019-03-20T07:53:55.529Z,25
2019-03-20T07:54:35.791Z,25
2019-03-20T07:55:16.446Z,25
2019-03-20T07:55:56.864Z,25
2019-03-20T07:56:37.344Z,25
2019-03-20T07:57:17.960Z,25
2019-03-20T07:57:58.904Z,25
2019-03-20T07:58:39.357Z,25
2019-03-20T07:59:20.171Z,25
2019-03-20T08:00:00.454Z,25
2019-03-20T08:00:41.056Z,25
2019-03-20T08:01:21.425Z,25
2019-03-20T08:02:02.036Z,25
2019-03-20T08:02:42.474Z,25
2019-03-20T08:03:24.685Z,25
2019-03-20T08:04:05.041Z,25
2019-03-20T08:04:45.447Z,25
2019-03-20T08:05:29.343Z,25
2019-03-20T08:06:06.294Z,25
2019-03-20T08:06:47.776Z,25
2019-03-20T08:07:28.395Z,25
2019-03-20T08:08:08.864Z,25
2019-03-20T08:08:56.546Z,25
2019-03-20T08:09:36.351Z,25
2019-03-20T08:10:16.716Z,25
2019-03-20T08:10:57.231Z,25
2019-03-20T08:11:37.657Z,25
2019-03-20T08:12:27.457Z,25
2019-03-20T08:13:08.569Z,25
2019-03-20T08:13:49.106Z,25
2019-03-20T08:14:31.441Z,25
2019-03-20T08:15:11.833Z,25
2019-03-20T08:15:52.392Z,25
2019-03-20T08:16:32.780Z,25
2019-03-20T08:17:16.081Z,25
2019-03-20T08:17:56.495Z,25
2019-03-20T08:18:38.767Z,25
2019-03-20T08:19:19.136Z,25
2019-03-20T08:20:01.362Z,25
2019-03-20T08:20:41.845Z,25
2019-03-20T08:21:22.813Z,25
2019-03-20T08:22:03.292Z,30
2019-03-20T08:22:44.554Z,30
2019-03-20T08:23:24.192Z,30
2019-03-20T08:24:04.557Z,30
2019-03-20T08:25:03.072Z,30
2019-03-20T08:25:43.527Z,35
2019-03-20T08:26:24.060Z,35
2019-03-20T08:27:04.303Z,35
2019-03-20T08:27:46.030Z,35
2019-03-20T08:28:26.118Z,35
2019-03-20T08:29:06.509Z,35
2019-03-20T08:29:46.943Z,35
2019-03-20T08:30:27.405Z,35
2019-03-20T08:31:07.779Z,35
2019-03-20T08:31:48.199Z,35
2019-03-20T08:32:46.497Z,35
2019-03-20T08:33:26.981Z,40
2019-03-20T08:34:07.358Z,40
2019-03-20T08:34:49.777Z,40
2019-03-20T08:35:32.130Z,40
2019-03-20T08:36:12.723Z,40
2019-03-20T08:36:55.041Z,40
2019-03-20T08:37:35.483Z,45
2019-03-20T08:38:18.431Z,45
2019-03-20T08:38:57.873Z,45
2019-03-20T08:39:39.099Z,40
2019-03-20T08:40:19.522Z,40
2019-03-20T08:40:59.929Z,40
2019-03-20T08:41:40.388Z,40
2019-03-20T08:42:23.206Z,40
2019-03-20T08:43:03.407Z,45
2019-03-20T08:43:46.343Z,45
2019-03-20T08:44:30.162Z,40
2019-03-20T08:45:11.553Z,40
2019-03-20T08:45:56.089Z,40
2019-03-20T08:46:35.601Z,40
2019-03-20T08:47:16.100Z,40
2019-03-20T08:47:58.048Z,40
2019-03-20T08:48:37.688Z,40
2019-03-20T08:49:21.211Z,40
2019-03-20T08:50:10.131Z,40
2019-03-20T08:50:50.722Z,40
2019-03-20T08:51:33.159Z,40
2019-03-20T08:52:13.628Z,40
2019-03-20T08:53:11.769Z,40
2019-03-20T08:53:52.239Z,40
2019-03-20T08:54:33.519Z,40
2019-03-20T08:55:14.619Z,40
2019-03-20T08:55:56.845Z,40
2019-03-20T08:56:37.220Z,40
2019-03-20T08:57:19.617Z,40
2019-03-20T08:58:00.096Z,35
2019-03-20T08:58:41.513Z,35
2019-03-20T08:59:21.909Z,35
2019-03-20T09:00:02.289Z,35
2019-03-20T09:00:48.581Z,35
2019-03-20T09:01:29.202Z,35
2019-03-20T09:02:09.422Z,35
2019-03-20T09:02:49.857Z,35
2019-03-20T09:03:30.464Z,35
2019-03-20T09:04:11.345Z,35
2019-03-20T09:04:51.625Z,35
2019-03-20T09:05:32.167Z,35
2019-03-20T09:06:12.913Z,35
2019-03-20T09:06:53.348Z,35
2019-03-20T09:07:33.824Z,35
2019-03-20T09:08:14.281Z,35
2019-03-20T09:08:56.519Z,35
2019-03-20T09:09:36.873Z,35
2019-03-20T09:10:17.332Z,35
2019-03-20T09:10:57.829Z,35
2019-03-20T09:11:38.210Z,35
2019-03-20T09:12:18.731Z,35
2019-03-20T09:12:59.611Z,35
2019-03-20T09:13:55.982Z,35
2019-03-20T09:14:36.096Z,35
2019-03-20T09:15:20.446Z,35
2019-03-20T09:16:00.853Z,35
2019-03-20T09:16:41.294Z,35
2019-03-20T09:17:21.668Z,35
2019-03-20T09:18:02.209Z,35
2019-03-20T09:18:42.729Z,35
2019-03-20T09:19:23.139Z,35
2019-03-20T09:20:03.621Z,35
2019-03-20T09:20:43.991Z,35
2019-03-20T09:21:24.447Z,35
2019-03-20T09:22:05.455Z,35
2019-03-20T09:22:45.936Z,35
2019-03-20T09:23:26.386Z,35
2019-03-20T09:24:07.668Z,35
2019-03-20T09:24:49.739Z,35
2019-03-20T09:25:30.220Z,35
2019-03-20T09:26:10.622Z,35
2019-03-20T09:26:51.077Z,35
2019-03-20T09:27:32.381Z,35
2019-03-20T09:28:12.869Z,40
2019-03-20T09:28:53.321Z,40
2019-03-20T09:29:36.190Z,40
2019-03-20T09:30:23.791Z,40
2019-03-20T09:31:06.939Z,40
2019-03-20T09:31:48.997Z,40
2019-03-20T09:32:29.401Z,40
2019-03-20T09:33:09.838Z,40
2019-03-20T09:33:52.131Z,40
2019-03-20T09:34:32.475Z,40
2019-03-20T09:38:23.948Z,45
2019-03-20T09:39:09.313Z,45
2019-03-20T09:39:49.711Z,45
2019-03-20T09:40:30.134Z,45
2019-03-20T09:41:10.544Z,45
2019-03-20T09:41:50.970Z,45
2019-03-20T09:42:31.531Z,45
2019-03-20T09:43:12.221Z,45
2019-03-20T09:43:52.639Z,45
2019-03-20T09:44:34.209Z,45
2019-03-20T09:45:14.993Z,45
2019-03-20T09:45:57.316Z,45
2019-03-20T09:46:38.022Z,45
2019-03-20T09:47:18.900Z,45
2019-03-20T09:47:59.353Z,45
2019-03-20T09:48:39.865Z,45
2019-03-20T09:49:20.244Z,45
2019-03-20T09:50:02.403Z,45
2019-03-20T09:50:42.811Z,45
2019-03-20T09:51:23.243Z,50
2019-03-20T09:52:03.675Z,50
2019-03-20T09:52:44.131Z,50
2019-03-20T09:53:26.397Z,50
2019-03-20T09:54:06.786Z,50
2019-03-20T09:54:47.209Z,50
2019-03-20T09:55:30.484Z,55
2019-03-20T09:56:13.113Z,55
2019-03-20T09:56:53.601Z,55
2019-03-20T09:57:34.020Z,55
2019-03-20T09:58:14.509Z,55
2019-03-20T09:58:55.639Z,60
2019-03-20T09:59:36.063Z,60
2019-03-20T10:00:16.521Z,60
2019-03-20T10:00:57.503Z,60
2019-03-20T10:01:37.369Z,65
2019-03-20T10:02:17.767Z,65
2019-03-20T10:03:17.088Z,65
2019-03-20T10:03:57.548Z,70
2019-03-20T10:04:38.371Z,70
2019-03-20T10:05:20.517Z,70
2019-03-20T10:06:00.974Z,70
2019-03-20T10:06:44.029Z,70
2019-03-20T10:07:24.984Z,70
2019-03-20T10:10:20.667Z,75
2019-03-20T10:11:00.301Z,75
2019-03-20T10:11:41.260Z,75
2019-03-20T10:12:21.434Z,75
2019-03-20T10:13:02.353Z,75
2019-03-20T10:13:46.324Z,75
2019-03-20T10:14:26.707Z,75
2019-03-20T10:15:08.097Z,75
2019-03-20T10:15:48.751Z,75
2019-03-20T10:16:29.481Z,70
2019-03-20T10:17:10.330Z,70
2019-03-20T10:17:51.808Z,70
2019-03-20T10:18:32.413Z,70
2019-03-20T10:19:12.828Z,75
2019-03-20T10:19:53.477Z,75
2019-03-20T10:20:34.061Z,75
2019-03-20T10:21:15.529Z,75
2019-03-20T10:21:57.524Z,75
2019-03-20T10:22:38.980Z,70
2019-03-20T10:23:18.325Z,70
2019-03-20T10:23:58.871Z,70
2019-03-20T10:24:39.391Z,65
2019-03-20T10:25:23.897Z,65
2019-03-20T10:26:04.569Z,60
2019-03-20T10:26:45.164Z,60
2019-03-20T10:27:26.590Z,60
2019-03-20T10:28:06.272Z,60
2019-03-20T10:28:47.080Z,60
2019-03-20T11:07:09.213Z,60
2019-03-20T11:07:48.709Z,60
2019-03-20T11:08:29.368Z,60
2019-03-20T11:09:17.978Z,60
2019-03-20T11:09:52.600Z,60
2019-03-20T11:10:33.728Z,60
2019-03-20T11:11:14.363Z,60
2019-03-20T11:11:55.050Z,60
2019-03-20T11:12:35.415Z,60
2019-03-20T11:13:15.892Z,60
2019-03-20T11:13:56.194Z,60
2019-03-20T11:14:37.406Z,60
2019-03-20T11:15:17.809Z,60
2019-03-20T11:15:58.277Z,55
2019-03-20T11:16:40.663Z,60
2019-03-20T11:17:21.033Z,55
2019-03-20T11:18:01.491Z,55
2019-03-20T11:18:41.948Z,55
2019-03-20T11:19:23.303Z,55
2019-03-20T11:20:04.150Z,55
2019-03-20T11:20:47.162Z,60
2019-03-20T11:21:27.792Z,60
2019-03-20T11:22:18.167Z,60
2019-03-20T11:22:48.864Z,60
2019-03-20T11:23:29.355Z,60
2019-03-20T11:24:10.022Z,60
2019-03-20T11:24:50.409Z,60
2019-03-20T11:25:30.830Z,60
2019-03-20T11:26:11.278Z,60
2019-03-20T11:26:52.240Z,60
2019-03-20T11:27:33.395Z,60
2019-03-20T11:28:13.066Z,60
2019-03-20T11:28:53.585Z,65
2019-03-20T11:29:33.953Z,65
2019-03-20T11:30:14.392Z,65
2019-03-20T11:30:55.050Z,65
2019-03-20T11:31:36.418Z,65
2019-03-20T11:32:17.958Z,65
2019-03-20T11:32:57.825Z,65
2019-03-20T11:33:38.254Z,65
2019-03-20T11:34:18.673Z,65
2019-03-20T11:34:59.428Z,65
2019-03-20T11:35:42.404Z,65
2019-03-20T11:36:20.276Z,65
2019-03-20T11:37:00.735Z,65
2019-03-20T11:37:41.136Z,65
2019-03-20T11:38:21.516Z,70
2019-03-20T11:39:01.971Z,70
2019-03-20T11:39:42.333Z,70
2019-03-20T11:40:22.734Z,65
2019-03-20T11:41:03.164Z,65
2019-03-20T11:41:43.582Z,65
2019-03-20T11:42:24.006Z,65
2019-03-20T11:43:04.460Z,60
2019-03-20T11:43:44.845Z,60
2019-03-20T11:44:25.239Z,60
2019-03-20T11:45:05.693Z,60
2019-03-20T11:45:46.089Z,60
2019-03-20T11:46:26.567Z,60
2019-03-20T11:47:07.125Z,55
2019-03-20T11:47:47.538Z,60
2019-03-20T11:48:29.467Z,60
2019-03-20T11:49:11.453Z,60
2019-03-20T11:55:13.850Z,65
2019-03-20T11:55:54.241Z,60
2019-03-20T11:56:34.630Z,60
2019-03-20T11:57:15.017Z,60
2019-03-20T11:57:55.485Z,65
2019-03-20T11:58:35.963Z,65
2019-03-20T11:59:16.364Z,65
2019-03-20T11:59:56.752Z,65
2019-03-20T12:00:37.114Z,65
2019-03-20T12:01:17.486Z,65
2019-03-20T12:01:57.915Z,60
2019-03-20T12:02:38.358Z,60
2019-03-20T12:03:18.755Z,60
2019-03-20T12:03:59.177Z,60
2019-03-20T12:04:39.585Z,65
2019-03-20T12:05:19.991Z,60
2019-03-20T12:06:00.508Z,60
2019-03-20T12:06:40.891Z,60
2019-03-20T12:07:23.182Z,65
2019-03-20T12:08:05.652Z,65
2019-03-20T12:15:44.510Z,65
2019-03-20T12:16:24.967Z,65
2019-03-20T12:17:05.510Z,65
2019-03-20T12:17:45.987Z,65
2019-03-20T12:18:26.365Z,65
2019-03-20T12:19:06.777Z,65
2019-03-20T12:19:47.311Z,60
2019-03-20T12:20:27.682Z,65
2019-03-20T12:21:08.962Z,60
2019-03-20T12:21:50.340Z,60
2019-03-20T12:22:30.847Z,60
2019-03-20T12:23:11.436Z,55
2019-03-20T12:23:52.143Z,55
2019-03-20T12:24:33.445Z,55
2019-03-20T12:25:13.204Z,55
2019-03-20T12:25:53.679Z,55
2019-03-20T12:26:34.071Z,55
2019-03-20T12:27:15.488Z,60
2019-03-20T12:27:54.926Z,60